Terminal Aerodrome Forecast
Issued by NWS Shreveport, LA

Current Version | Previous Version | Text Only | Print | Product List | Glossary On
Versions: 1 2 3 4 5 6 7 8 9 10 11 12 13 14 15
318
FTUS44 KSHV 231120
TAFMLU
TAF
KMLU 231120Z 2312/2412 26008KT P6SM OVC025
      TEMPO 2316/2320 SCT030
     FM232000 28012KT P6SM SCT035
     FM240400 VRB04KT P6SM SKC
     FM241000 VRB03KT 3SM BR SKC=

USA.gov is the U.S. government's official web portal to all federal, state and local government web resources and services.